Terminal Aerodrome Forecast
Issued by NWS Des Moines, IA

Home | Current Version | Previous Version | Text Only | Print | Product List | Glossary On
Versions: 1 2 3 4 5 6 7 8 9 10 11 12 13 14 15 16 17 18 19 20 21 22 23 24 25 26 27 28 29
000
FTUS43 KDMX 241022 AAA
TAFALO
TAF AMD
KALO 241022Z 2410/2506 VRB02KT 1 1/2SM BR OVC003
      TEMPO 2411/2414 4SM BR SCT003
     FM241400 16010KT P6SM FEW040 SCT150=

USA.gov is the U.S. government's official web portal to all federal, state and local government web resources and services.